Chino, California
Current Conditions -  °F | °C
As of 4:53 PM on Monday 22 Dec 2014 (Local Time) from KCNO Reporting Station
Clear Clear  
Wind Chill: 65°   Ceiling: Unl
Heat Index: 65°   Visibility: 10mi
Dew Point: 51°   Wind: 5mph
Humidity: 61%   Direction: 230°SW
Pressure: 29.96"   Gusts: NA
Location:  34.01°N, 117.68°W
Report Text: KCNO 230053Z 23004KT 10SM CLR 18/11 A2996 RMK AO2 SLP143 T01830106
Loading
Personal Weather Stations






























Interactive Weather Map New forecast layout! Learn more

10-Day Weather Forecast

Advertisements
Track Severe Weather on mobile